sensor_id;sensor_type;location;lat;lon;timestamp;P1;durP1;ratioP1;P2;durP2;ratioP2
37955;SDS011;23776;51.592;7.180;2024-02-15T00:01:02;25.85;;;11.43;;
37955;SDS011;23776;51.592;7.180;2024-02-15T00:03:29;30.63;;;13.98;;
37955;SDS011;23776;51.592;7.180;2024-02-15T00:05:56;32.35;;;13.38;;
37955;SDS011;23776;51.592;7.180;2024-02-15T00:08:22;29.38;;;13.18;;
37955;SDS011;23776;51.592;7.180;2024-02-15T00:10:49;23.90;;;12.38;;
37955;SDS011;23776;51.592;7.180;2024-02-15T00:13:15;31.23;;;14.63;;
37955;SDS011;23776;51.592;7.180;2024-02-15T00:15:41;31.08;;;13.57;;
37955;SDS011;23776;51.592;7.180;2024-02-15T00:18:06;35.00;;;14.50;;
37955;SDS011;23776;51.592;7.180;2024-02-15T00:20:32;29.40;;;13.07;;
37955;SDS011;23776;51.592;7.180;2024-02-15T00:23:00;33.00;;;14.00;;
37955;SDS011;23776;51.592;7.180;2024-02-15T00:25:26;28.65;;;14.00;;
37955;SDS011;23776;51.592;7.180;2024-02-15T00:27:52;30.77;;;14.73;;
37955;SDS011;23776;51.592;7.180;2024-02-15T00:30:17;30.98;;;15.43;;
37955;SDS011;23776;51.592;7.180;2024-02-15T00:32:43;32.15;;;15.15;;
37955;SDS011;23776;51.592;7.180;2024-02-15T00:35:10;29.50;;;14.50;;
37955;SDS011;23776;51.592;7.180;2024-02-15T00:37:35;34.42;;;16.33;;
37955;SDS011;23776;51.592;7.180;2024-02-15T00:40:01;31.25;;;16.80;;
37955;SDS011;23776;51.592;7.180;2024-02-15T00:42:30;43.33;;;16.88;;
37955;SDS011;23776;51.592;7.180;2024-02-15T00:44:56;41.13;;;18.73;;
37955;SDS011;23776;51.592;7.180;2024-02-15T00:47:22;43.92;;;19.13;;
37955;SDS011;23776;51.592;7.180;2024-02-15T00:49:48;35.58;;;17.85;;
37955;SDS011;23776;51.592;7.180;2024-02-15T00:52:15;35.45;;;18.92;;
37955;SDS011;23776;51.592;7.180;2024-02-15T00:54:41;36.95;;;18.35;;
37955;SDS011;23776;51.592;7.180;2024-02-15T00:57:06;47.92;;;18.48;;
37955;SDS011;23776;51.592;7.180;2024-02-15T00:59:32;41.85;;;18.38;;
37955;SDS011;23776;51.592;7.180;2024-02-15T01:02:00;40.17;;;20.88;;
37955;SDS011;23776;51.592;7.180;2024-02-15T01:04:27;40.50;;;19.50;;
37955;SDS011;23776;51.592;7.180;2024-02-15T01:06:53;37.50;;;18.20;;
37955;SDS011;23776;51.592;7.180;2024-02-15T01:09:19;39.78;;;19.65;;
37955;SDS011;23776;51.592;7.180;2024-02-15T01:11:44;42.35;;;18.85;;
37955;SDS011;23776;51.592;7.180;2024-02-15T01:14:10;37.60;;;18.85;;
37955;SDS011;23776;51.592;7.180;2024-02-15T01:16:36;38.15;;;19.45;;
37955;SDS011;23776;51.592;7.180;2024-02-15T01:19:02;38.80;;;19.00;;
37955;SDS011;23776;51.592;7.180;2024-02-15T01:21:27;44.05;;;18.80;;
37955;SDS011;23776;51.592;7.180;2024-02-15T01:23:53;38.65;;;19.10;;
37955;SDS011;23776;51.592;7.180;2024-02-15T01:26:19;44.33;;;18.95;;
37955;SDS011;23776;51.592;7.180;2024-02-15T01:28:45;35.97;;;18.30;;
37955;SDS011;23776;51.592;7.180;2024-02-15T01:31:11;40.35;;;18.10;;
37955;SDS011;23776;51.592;7.180;2024-02-15T01:33:36;36.85;;;17.63;;
37955;SDS011;23776;51.592;7.180;2024-02-15T01:36:03;46.65;;;17.63;;
37955;SDS011;23776;51.592;7.180;2024-02-15T01:38:29;44.13;;;18.23;;
37955;SDS011;23776;51.592;7.180;2024-02-15T01:40:55;36.90;;;17.73;;
37955;SDS011;23776;51.592;7.180;2024-02-15T01:43:20;35.47;;;17.33;;
37955;SDS011;23776;51.592;7.180;2024-02-15T01:45:46;38.67;;;17.35;;
37955;SDS011;23776;51.592;7.180;2024-02-15T01:48:14;35.38;;;16.85;;
37955;SDS011;23776;51.592;7.180;2024-02-15T01:50:41;39.03;;;17.70;;
37955;SDS011;23776;51.592;7.180;2024-02-15T01:53:07;42.28;;;19.45;;
37955;SDS011;23776;51.592;7.180;2024-02-15T01:55:34;37.88;;;17.77;;
37955;SDS011;23776;51.592;7.180;2024-02-15T01:58:00;42.05;;;17.77;;
37955;SDS011;23776;51.592;7.180;2024-02-15T02:00:26;35.42;;;16.60;;
37955;SDS011;23776;51.592;7.180;2024-02-15T02:02:53;36.38;;;16.17;;
37955;SDS011;23776;51.592;7.180;2024-02-15T02:05:19;36.83;;;14.32;;
37955;SDS011;23776;51.592;7.180;2024-02-15T02:07:44;34.38;;;15.02;;
37955;SDS011;23776;51.592;7.180;2024-02-15T02:10:10;36.20;;;14.95;;
37955;SDS011;23776;51.592;7.180;2024-02-15T02:12:37;27.83;;;13.95;;
37955;SDS011;23776;51.592;7.180;2024-02-15T02:15:06;35.38;;;13.80;;
37955;SDS011;23776;51.592;7.180;2024-02-15T02:17:32;28.85;;;13.10;;
37955;SDS011;23776;51.592;7.180;2024-02-15T02:19:58;33.45;;;13.77;;
37955;SDS011;23776;51.592;7.180;2024-02-15T02:22:24;26.52;;;12.90;;
37955;SDS011;23776;51.592;7.180;2024-02-15T02:25:03;28.00;;;12.75;;
37955;SDS011;23776;51.592;7.180;2024-02-15T02:27:34;33.95;;;12.05;;
37955;SDS011;23776;51.592;7.180;2024-02-15T02:30:00;32.72;;;11.48;;
37955;SDS011;23776;51.592;7.180;2024-02-15T02:32:31;33.47;;;11.60;;
37955;SDS011;23776;51.592;7.180;2024-02-15T02:34:58;27.77;;;11.98;;
37955;SDS011;23776;51.592;7.180;2024-02-15T02:37:24;27.20;;;12.00;;
37955;SDS011;23776;51.592;7.180;2024-02-15T02:39:50;39.25;;;11.73;;
37955;SDS011;23776;51.592;7.180;2024-02-15T02:42:15;29.63;;;11.48;;
37955;SDS011;23776;51.592;7.180;2024-02-15T02:44:41;26.85;;;10.57;;
37955;SDS011;23776;51.592;7.180;2024-02-15T02:47:07;27.73;;;10.27;;
37955;SDS011;23776;51.592;7.180;2024-02-15T02:49:32;30.48;;;9.93;;
37955;SDS011;23776;51.592;7.180;2024-02-15T02:52:00;26.17;;;10.07;;
37955;SDS011;23776;51.592;7.180;2024-02-15T02:54:26;29.42;;;10.05;;
37955;SDS011;23776;51.592;7.180;2024-02-15T02:56:51;30.50;;;9.95;;
37955;SDS011;23776;51.592;7.180;2024-02-15T02:59:17;24.33;;;10.50;;
37955;SDS011;23776;51.592;7.180;2024-02-15T03:01:42;28.92;;;9.95;;
37955;SDS011;23776;51.592;7.180;2024-02-15T03:04:08;21.52;;;10.10;;
37955;SDS011;23776;51.592;7.180;2024-02-15T03:06:34;25.33;;;10.07;;
37955;SDS011;23776;51.592;7.180;2024-02-15T03:08:59;33.92;;;10.40;;
37955;SDS011;23776;51.592;7.180;2024-02-15T03:11:26;23.60;;;10.10;;
37955;SDS011;23776;51.592;7.180;2024-02-15T03:13:52;23.05;;;10.07;;
37955;SDS011;23776;51.592;7.180;2024-02-15T03:16:21;25.90;;;9.32;;
37955;SDS011;23776;51.592;7.180;2024-02-15T03:18:47;19.17;;;9.38;;
37955;SDS011;23776;51.592;7.180;2024-02-15T03:21:13;19.30;;;9.05;;
37955;SDS011;23776;51.592;7.180;2024-02-15T03:23:40;21.35;;;9.15;;
37955;SDS011;23776;51.592;7.180;2024-02-15T03:26:07;18.40;;;7.97;;
37955;SDS011;23776;51.592;7.180;2024-02-15T03:28:34;15.57;;;7.55;;
37955;SDS011;23776;51.592;7.180;2024-02-15T03:31:01;29.73;;;7.93;;
37955;SDS011;23776;51.592;7.180;2024-02-15T03:33:27;22.70;;;8.18;;
37955;SDS011;23776;51.592;7.180;2024-02-15T03:35:57;19.52;;;7.93;;
37955;SDS011;23776;51.592;7.180;2024-02-15T03:38:25;22.15;;;7.68;;
37955;SDS011;23776;51.592;7.180;2024-02-15T03:40:51;19.77;;;7.43;;
37955;SDS011;23776;51.592;7.180;2024-02-15T03:43:17;13.82;;;6.70;;
37955;SDS011;23776;51.592;7.180;2024-02-15T03:45:43;19.23;;;6.82;;
37955;SDS011;23776;51.592;7.180;2024-02-15T03:48:09;21.77;;;7.40;;
37955;SDS011;23776;51.592;7.180;2024-02-15T03:50:35;17.83;;;6.78;;
37955;SDS011;23776;51.592;7.180;2024-02-15T03:53:01;18.67;;;6.32;;
37955;SDS011;23776;51.592;7.180;2024-02-15T03:55:26;19.23;;;6.50;;
37955;SDS011;23776;51.592;7.180;2024-02-15T03:57:52;19.48;;;6.63;;
37955;SDS011;23776;51.592;7.180;2024-02-15T04:00:20;16.40;;;6.68;;
37955;SDS011;23776;51.592;7.180;2024-02-15T04:02:46;19.77;;;6.30;;
37955;SDS011;23776;51.592;7.180;2024-02-15T04:05:13;19.73;;;5.90;;
37955;SDS011;23776;51.592;7.180;2024-02-15T04:07:39;18.45;;;5.65;;
37955;SDS011;23776;51.592;7.180;2024-02-15T04:10:05;18.27;;;5.68;;
37955;SDS011;23776;51.592;7.180;2024-02-15T04:12:31;16.95;;;5.93;;
37955;SDS011;23776;51.592;7.180;2024-02-15T04:14:58;16.83;;;5.80;;
37955;SDS011;23776;51.592;7.180;2024-02-15T04:17:30;16.48;;;5.32;;
37955;SDS011;23776;51.592;7.180;2024-02-15T04:19:59;12.45;;;5.45;;
37955;SDS011;23776;51.592;7.180;2024-02-15T04:22:25;14.52;;;5.30;;
37955;SDS011;23776;51.592;7.180;2024-02-15T04:24:50;11.18;;;5.05;;
37955;SDS011;23776;51.592;7.180;2024-02-15T04:27:16;19.35;;;6.38;;
37955;SDS011;23776;51.592;7.180;2024-02-15T04:29:45;21.40;;;4.82;;
37955;SDS011;23776;51.592;7.180;2024-02-15T04:32:11;20.52;;;5.18;;
37955;SDS011;23776;51.592;7.180;2024-02-15T04:34:38;19.58;;;5.55;;
37955;SDS011;23776;51.592;7.180;2024-02-15T04:37:06;18.63;;;5.60;;
37955;SDS011;23776;51.592;7.180;2024-02-15T04:39:32;17.60;;;5.00;;
37955;SDS011;23776;51.592;7.180;2024-02-15T04:42:01;19.63;;;4.63;;
37955;SDS011;23776;51.592;7.180;2024-02-15T04:44:37;13.35;;;4.82;;
37955;SDS011;23776;51.592;7.180;2024-02-15T04:47:04;16.95;;;5.10;;
37955;SDS011;23776;51.592;7.180;2024-02-15T04:49:30;15.55;;;4.38;;
37955;SDS011;23776;51.592;7.180;2024-02-15T04:51:55;16.25;;;5.15;;
37955;SDS011;23776;51.592;7.180;2024-02-15T04:54:22;19.58;;;4.82;;
37955;SDS011;23776;51.592;7.180;2024-02-15T04:56:48;14.57;;;4.57;;
37955;SDS011;23776;51.592;7.180;2024-02-15T04:59:15;14.25;;;4.82;;
37955;SDS011;23776;51.592;7.180;2024-02-15T05:01:41;19.38;;;4.57;;
37955;SDS011;23776;51.592;7.180;2024-02-15T05:04:10;13.40;;;4.38;;
37955;SDS011;23776;51.592;7.180;2024-02-15T05:06:39;12.88;;;4.57;;
37955;SDS011;23776;51.592;7.180;2024-02-15T05:09:04;17.98;;;5.55;;
37955;SDS011;23776;51.592;7.180;2024-02-15T05:11:36;19.85;;;4.82;;
37955;SDS011;23776;51.592;7.180;2024-02-15T05:14:03;16.95;;;5.47;;
37955;SDS011;23776;51.592;7.180;2024-02-15T05:16:32;11.43;;;4.63;;
37955;SDS011;23776;51.592;7.180;2024-02-15T05:19:03;16.73;;;5.10;;
37955;SDS011;23776;51.592;7.180;2024-02-15T05:21:30;14.02;;;4.15;;
37955;SDS011;23776;51.592;7.180;2024-02-15T05:23:55;14.60;;;4.50;;
37955;SDS011;23776;51.592;7.180;2024-02-15T05:26:22;11.68;;;4.22;;
37955;SDS011;23776;51.592;7.180;2024-02-15T05:28:49;11.60;;;4.40;;
37955;SDS011;23776;51.592;7.180;2024-02-15T05:31:15;13.80;;;4.07;;
37955;SDS011;23776;51.592;7.180;2024-02-15T05:33:48;14.75;;;3.88;;
37955;SDS011;23776;51.592;7.180;2024-02-15T05:36:15;15.13;;;4.55;;
37955;SDS011;23776;51.592;7.180;2024-02-15T05:38:45;9.05;;;3.28;;
37955;SDS011;23776;51.592;7.180;2024-02-15T05:41:12;12.10;;;4.25;;
37955;SDS011;23776;51.592;7.180;2024-02-15T05:43:40;15.73;;;4.30;;
37955;SDS011;23776;51.592;7.180;2024-02-15T05:46:09;15.00;;;3.55;;
37955;SDS011;23776;51.592;7.180;2024-02-15T05:48:35;11.60;;;3.15;;
37955;SDS011;23776;51.592;7.180;2024-02-15T05:51:08;12.65;;;3.33;;
37955;SDS011;23776;51.592;7.180;2024-02-15T05:53:34;7.45;;;3.28;;
37955;SDS011;23776;51.592;7.180;2024-02-15T05:56:10;13.13;;;3.60;;
37955;SDS011;23776;51.592;7.180;2024-02-15T05:58:35;8.35;;;3.25;;
37955;SDS011;23776;51.592;7.180;2024-02-15T06:01:03;7.85;;;2.60;;
37955;SDS011;23776;51.592;7.180;2024-02-15T06:03:32;8.85;;;2.80;;
37955;SDS011;23776;51.592;7.180;2024-02-15T06:05:59;9.57;;;3.17;;
37955;SDS011;23776;51.592;7.180;2024-02-15T06:08:27;10.38;;;2.45;;
37955;SDS011;23776;51.592;7.180;2024-02-15T06:10:54;7.78;;;2.50;;
37955;SDS011;23776;51.592;7.180;2024-02-15T06:13:21;9.93;;;2.65;;
37955;SDS011;23776;51.592;7.180;2024-02-15T06:15:47;9.20;;;2.35;;
37955;SDS011;23776;51.592;7.180;2024-02-15T06:18:17;9.02;;;2.20;;
37955;SDS011;23776;51.592;7.180;2024-02-15T06:20:49;8.68;;;2.47;;
37955;SDS011;23776;51.592;7.180;2024-02-15T06:23:18;11.20;;;2.42;;
37955;SDS011;23776;51.592;7.180;2024-02-15T06:25:46;7.30;;;2.13;;
37955;SDS011;23776;51.592;7.180;2024-02-15T06:28:15;7.35;;;2.33;;
37955;SDS011;23776;51.592;7.180;2024-02-15T06:31:00;5.32;;;1.90;;
37955;SDS011;23776;51.592;7.180;2024-02-15T06:33:44;9.05;;;2.97;;
37955;SDS011;23776;51.592;7.180;2024-02-15T06:39:12;5.22;;;2.33;;
37955;SDS011;23776;51.592;7.180;2024-02-15T06:41:56;8.60;;;2.25;;
37955;SDS011;23776;51.592;7.180;2024-02-15T06:44:21;9.27;;;2.38;;
37955;SDS011;23776;51.592;7.180;2024-02-15T06:46:49;7.63;;;2.75;;
37955;SDS011;23776;51.592;7.180;2024-02-15T06:49:15;9.65;;;2.83;;
37955;SDS011;23776;51.592;7.180;2024-02-15T06:51:41;9.85;;;2.90;;
37955;SDS011;23776;51.592;7.180;2024-02-15T06:54:07;8.57;;;2.97;;
37955;SDS011;23776;51.592;7.180;2024-02-15T06:56:35;6.32;;;2.63;;
37955;SDS011;23776;51.592;7.180;2024-02-15T06:59:02;9.45;;;2.97;;
37955;SDS011;23776;51.592;7.180;2024-02-15T07:01:28;7.35;;;2.47;;
37955;SDS011;23776;51.592;7.180;2024-02-15T07:03:54;8.80;;;2.60;;
37955;SDS011;23776;51.592;7.180;2024-02-15T07:06:21;5.10;;;2.58;;
37955;SDS011;23776;51.592;7.180;2024-02-15T07:08:46;10.07;;;3.28;;
37955;SDS011;23776;51.592;7.180;2024-02-15T07:11:15;5.68;;;2.60;;
37955;SDS011;23776;51.592;7.180;2024-02-15T07:13:41;7.70;;;2.67;;
37955;SDS011;23776;51.592;7.180;2024-02-15T07:16:09;6.72;;;3.30;;
37955;SDS011;23776;51.592;7.180;2024-02-15T07:18:36;9.57;;;3.00;;
37955;SDS011;23776;51.592;7.180;2024-02-15T07:21:02;8.70;;;2.83;;
37955;SDS011;23776;51.592;7.180;2024-02-15T07:23:33;10.88;;;3.63;;
37955;SDS011;23776;51.592;7.180;2024-02-15T07:25:59;5.55;;;2.80;;
37955;SDS011;23776;51.592;7.180;2024-02-15T07:28:25;14.15;;;3.40;;
37955;SDS011;23776;51.592;7.180;2024-02-15T07:30:54;9.85;;;3.03;;
37955;SDS011;23776;51.592;7.180;2024-02-15T07:33:20;10.10;;;3.35;;
37955;SDS011;23776;51.592;7.180;2024-02-15T07:35:48;13.20;;;3.72;;
37955;SDS011;23776;51.592;7.180;2024-02-15T07:38:16;11.80;;;3.72;;
37955;SDS011;23776;51.592;7.180;2024-02-15T07:40:42;10.82;;;3.60;;
37955;SDS011;23776;51.592;7.180;2024-02-15T07:43:08;12.73;;;3.97;;
37955;SDS011;23776;51.592;7.180;2024-02-15T07:45:35;10.27;;;4.00;;
37955;SDS011;23776;51.592;7.180;2024-02-15T07:48:02;10.77;;;3.45;;
37955;SDS011;23776;51.592;7.180;2024-02-15T07:50:29;6.35;;;3.47;;
37955;SDS011;23776;51.592;7.180;2024-02-15T07:52:55;14.20;;;4.95;;
37955;SDS011;23776;51.592;7.180;2024-02-15T07:55:21;8.93;;;3.97;;
37955;SDS011;23776;51.592;7.180;2024-02-15T07:57:47;13.80;;;4.03;;
37955;SDS011;23776;51.592;7.180;2024-02-15T08:00:13;7.65;;;3.55;;
37955;SDS011;23776;51.592;7.180;2024-02-15T08:02:41;11.65;;;3.47;;
37955;SDS011;23776;51.592;7.180;2024-02-15T08:05:09;11.98;;;3.20;;
37955;SDS011;23776;51.592;7.180;2024-02-15T08:07:36;10.63;;;3.28;;
37955;SDS011;23776;51.592;7.180;2024-02-15T08:10:04;7.82;;;3.58;;
37955;SDS011;23776;51.592;7.180;2024-02-15T08:12:33;11.20;;;3.53;;
37955;SDS011;23776;51.592;7.180;2024-02-15T08:14:58;10.98;;;3.63;;
37955;SDS011;23776;51.592;7.180;2024-02-15T08:17:24;13.65;;;3.38;;
37955;SDS011;23776;51.592;7.180;2024-02-15T08:19:51;14.27;;;2.67;;
37955;SDS011;23776;51.592;7.180;2024-02-15T08:22:16;11.85;;;3.08;;
37955;SDS011;23776;51.592;7.180;2024-02-15T08:24:44;9.95;;;2.85;;
37955;SDS011;23776;51.592;7.180;2024-02-15T08:27:10;6.80;;;2.95;;
37955;SDS011;23776;51.592;7.180;2024-02-15T08:29:35;9.48;;;3.67;;
37955;SDS011;23776;51.592;7.180;2024-02-15T08:32:01;8.20;;;3.08;;
37955;SDS011;23776;51.592;7.180;2024-02-15T08:34:26;9.15;;;2.50;;
37955;SDS011;23776;51.592;7.180;2024-02-15T08:36:53;11.43;;;3.47;;
37955;SDS011;23776;51.592;7.180;2024-02-15T08:39:18;7.30;;;2.67;;
37955;SDS011;23776;51.592;7.180;2024-02-15T08:41:44;12.63;;;3.10;;
37955;SDS011;23776;51.592;7.180;2024-02-15T08:44:11;5.80;;;2.70;;
37955;SDS011;23776;51.592;7.180;2024-02-15T08:46:40;8.40;;;3.20;;
37955;SDS011;23776;51.592;7.180;2024-02-15T08:49:06;12.70;;;2.90;;
37955;SDS011;23776;51.592;7.180;2024-02-15T08:51:31;10.93;;;2.78;;
37955;SDS011;23776;51.592;7.180;2024-02-15T08:53:57;16.35;;;3.28;;
37955;SDS011;23776;51.592;7.180;2024-02-15T08:56:24;11.00;;;2.83;;
37955;SDS011;23776;51.592;7.180;2024-02-15T08:58:50;10.75;;;2.75;;
37955;SDS011;23776;51.592;7.180;2024-02-15T09:01:16;11.30;;;2.55;;
37955;SDS011;23776;51.592;7.180;2024-02-15T09:03:41;13.02;;;2.42;;
37955;SDS011;23776;51.592;7.180;2024-02-15T09:06:08;13.38;;;3.28;;
37955;SDS011;23776;51.592;7.180;2024-02-15T09:08:33;7.35;;;2.40;;
37955;SDS011;23776;51.592;7.180;2024-02-15T09:10:59;14.85;;;3.15;;
37955;SDS011;23776;51.592;7.180;2024-02-15T09:13:24;13.88;;;4.07;;
37955;SDS011;23776;51.592;7.180;2024-02-15T09:15:50;16.15;;;3.22;;
37955;SDS011;23776;51.592;7.180;2024-02-15T09:18:16;10.70;;;2.65;;
37955;SDS011;23776;51.592;7.180;2024-02-15T09:20:47;11.55;;;2.72;;
37955;SDS011;23776;51.592;7.180;2024-02-15T09:23:14;6.97;;;2.90;;
37955;SDS011;23776;51.592;7.180;2024-02-15T09:25:39;9.30;;;2.65;;
37955;SDS011;23776;51.592;7.180;2024-02-15T09:28:07;6.43;;;3.30;;
37955;SDS011;23776;51.592;7.180;2024-02-15T09:30:33;7.85;;;2.92;;
37955;SDS011;23776;51.592;7.180;2024-02-15T09:33:00;8.25;;;3.03;;
37955;SDS011;23776;51.592;7.180;2024-02-15T09:35:29;7.93;;;2.92;;
37955;SDS011;23776;51.592;7.180;2024-02-15T09:37:55;7.63;;;2.10;;
37955;SDS011;23776;51.592;7.180;2024-02-15T09:40:21;9.38;;;2.35;;
37955;SDS011;23776;51.592;7.180;2024-02-15T09:42:51;7.45;;;2.80;;
37955;SDS011;23776;51.592;7.180;2024-02-15T09:45:17;9.27;;;2.10;;
37955;SDS011;23776;51.592;7.180;2024-02-15T09:47:45;12.07;;;2.38;;
37955;SDS011;23776;51.592;7.180;2024-02-15T09:50:15;9.63;;;2.35;;
37955;SDS011;23776;51.592;7.180;2024-02-15T09:52:51;7.93;;;2.17;;
37955;SDS011;23776;51.592;7.180;2024-02-15T09:55:21;11.32;;;2.95;;
37955;SDS011;23776;51.592;7.180;2024-02-15T09:57:48;9.57;;;2.55;;
37955;SDS011;23776;51.592;7.180;2024-02-15T10:00:15;8.43;;;2.30;;
37955;SDS011;23776;51.592;7.180;2024-02-15T10:02:42;13.60;;;2.45;;
37955;SDS011;23776;51.592;7.180;2024-02-15T10:05:09;8.73;;;2.30;;
37955;SDS011;23776;51.592;7.180;2024-02-15T10:07:39;5.97;;;2.75;;
37955;SDS011;23776;51.592;7.180;2024-02-15T10:12:45;12.68;;;3.20;;
37955;SDS011;23776;51.592;7.180;2024-02-15T10:15:32;5.10;;;2.22;;
37955;SDS011;23776;51.592;7.180;2024-02-15T10:18:03;9.13;;;2.13;;
37955;SDS011;23776;51.592;7.180;2024-02-15T10:20:41;11.35;;;2.03;;
37955;SDS011;23776;51.592;7.180;2024-02-15T10:25:39;6.43;;;1.70;;
37955;SDS011;23776;51.592;7.180;2024-02-15T10:28:06;6.40;;;2.15;;
37955;SDS011;23776;51.592;7.180;2024-02-15T10:30:34;6.72;;;1.90;;
37955;SDS011;23776;51.592;7.180;2024-02-15T10:33:01;6.63;;;1.90;;
37955;SDS011;23776;51.592;7.180;2024-02-15T10:35:27;7.57;;;1.60;;
37955;SDS011;23776;51.592;7.180;2024-02-15T10:38:04;6.18;;;1.77;;
37955;SDS011;23776;51.592;7.180;2024-02-15T10:40:33;9.88;;;1.90;;
37955;SDS011;23776;51.592;7.180;2024-02-15T10:42:59;5.90;;;1.70;;
37955;SDS011;23776;51.592;7.180;2024-02-15T10:45:28;5.07;;;1.65;;
37955;SDS011;23776;51.592;7.180;2024-02-15T10:47:56;7.38;;;1.50;;
37955;SDS011;23776;51.592;7.180;2024-02-15T10:50:22;9.75;;;1.63;;
37955;SDS011;23776;51.592;7.180;2024-02-15T10:52:55;6.72;;;1.77;;
37955;SDS011;23776;51.592;7.180;2024-02-15T10:55:35;8.00;;;2.03;;
37955;SDS011;23776;51.592;7.180;2024-02-15T10:58:05;6.03;;;1.55;;
37955;SDS011;23776;51.592;7.180;2024-02-15T11:00:34;3.25;;;1.15;;
37955;SDS011;23776;51.592;7.180;2024-02-15T11:03:04;7.10;;;1.50;;
37955;SDS011;23776;51.592;7.180;2024-02-15T11:05:34;9.25;;;1.60;;
37955;SDS011;23776;51.592;7.180;2024-02-15T11:08:02;6.97;;;1.88;;
37955;SDS011;23776;51.592;7.180;2024-02-15T11:10:29;6.53;;;1.70;;
37955;SDS011;23776;51.592;7.180;2024-02-15T11:12:55;5.45;;;1.50;;
37955;SDS011;23776;51.592;7.180;2024-02-15T11:18:02;4.57;;;2.72;;
37955;SDS011;23776;51.592;7.180;2024-02-15T11:22:59;6.03;;;1.10;;
37955;SDS011;23776;51.592;7.180;2024-02-15T11:25:36;6.47;;;1.52;;
37955;SDS011;23776;51.592;7.180;2024-02-15T11:30:49;5.07;;;1.33;;
37955;SDS011;23776;51.592;7.180;2024-02-15T11:36:10;7.15;;;2.38;;
37955;SDS011;23776;51.592;7.180;2024-02-15T11:38:37;8.50;;;1.95;;
37955;SDS011;23776;51.592;7.180;2024-02-15T11:41:08;7.22;;;1.50;;
37955;SDS011;23776;51.592;7.180;2024-02-15T11:46:17;6.43;;;1.50;;
37955;SDS011;23776;51.592;7.180;2024-02-15T11:48:47;8.07;;;1.50;;
37955;SDS011;23776;51.592;7.180;2024-02-15T11:51:25;4.70;;;1.23;;
37955;SDS011;23776;51.592;7.180;2024-02-15T11:54:04;4.15;;;1.42;;
37955;SDS011;23776;51.592;7.180;2024-02-15T11:59:19;4.60;;;1.27;;
37955;SDS011;23776;51.592;7.180;2024-02-15T12:01:57;3.40;;;1.10;;
37955;SDS011;23776;51.592;7.180;2024-02-15T12:04:44;3.85;;;1.27;;
37955;SDS011;23776;51.592;7.180;2024-02-15T12:07:29;4.43;;;1.35;;
37955;SDS011;23776;51.592;7.180;2024-02-15T12:10:17;4.75;;;1.35;;
37955;SDS011;23776;51.592;7.180;2024-02-15T12:13:02;4.43;;;1.10;;
37955;SDS011;23776;51.592;7.180;2024-02-15T12:15:58;6.57;;;1.60;;
37955;SDS011;23776;51.592;7.180;2024-02-15T12:18:43;4.13;;;1.45;;
37955;SDS011;23776;51.592;7.180;2024-02-15T12:21:14;4.38;;;1.38;;
37955;SDS011;23776;51.592;7.180;2024-02-15T12:23:43;6.43;;;1.48;;
37955;SDS011;23776;51.592;7.180;2024-02-15T12:26:10;5.68;;;1.58;;
37955;SDS011;23776;51.592;7.180;2024-02-15T12:28:39;5.60;;;1.17;;
37955;SDS011;23776;51.592;7.180;2024-02-15T12:31:08;9.60;;;1.20;;
37955;SDS011;23776;51.592;7.180;2024-02-15T12:33:38;5.32;;;1.10;;
37955;SDS011;23776;51.592;7.180;2024-02-15T12:36:06;6.95;;;1.27;;
37955;SDS011;23776;51.592;7.180;2024-02-15T12:38:33;3.25;;;1.20;;
37955;SDS011;23776;51.592;7.180;2024-02-15T12:41:02;5.53;;;1.40;;
37955;SDS011;23776;51.592;7.180;2024-02-15T12:43:28;6.53;;;1.08;;
37955;SDS011;23776;51.592;7.180;2024-02-15T12:45:54;7.97;;;1.67;;
37955;SDS011;23776;51.592;7.180;2024-02-15T12:48:22;4.57;;;1.35;;
37955;SDS011;23776;51.592;7.180;2024-02-15T12:50:47;3.38;;;1.10;;
37955;SDS011;23776;51.592;7.180;2024-02-15T12:53:20;8.93;;;1.83;;
37955;SDS011;23776;51.592;7.180;2024-02-15T12:55:53;5.88;;;1.70;;
37955;SDS011;23776;51.592;7.180;2024-02-15T12:58:20;4.53;;;1.15;;
37955;SDS011;23776;51.592;7.180;2024-02-15T13:00:45;5.75;;;1.20;;
37955;SDS011;23776;51.592;7.180;2024-02-15T13:03:11;4.78;;;1.15;;
37955;SDS011;23776;51.592;7.180;2024-02-15T13:05:39;4.80;;;1.33;;
37955;SDS011;23776;51.592;7.180;2024-02-15T13:08:04;5.55;;;1.40;;
37955;SDS011;23776;51.592;7.180;2024-02-15T13:10:35;7.93;;;1.60;;
37955;SDS011;23776;51.592;7.180;2024-02-15T13:13:00;5.90;;;1.58;;
37955;SDS011;23776;51.592;7.180;2024-02-15T13:15:26;3.95;;;1.30;;
37955;SDS011;23776;51.592;7.180;2024-02-15T13:17:57;6.45;;;1.40;;
37955;SDS011;23776;51.592;7.180;2024-02-15T13:20:23;7.03;;;1.30;;
37955;SDS011;23776;51.592;7.180;2024-02-15T13:22:57;5.97;;;1.77;;
37955;SDS011;23776;51.592;7.180;2024-02-15T13:25:27;3.22;;;1.08;;
37955;SDS011;23776;51.592;7.180;2024-02-15T13:27:54;5.10;;;1.52;;
37955;SDS011;23776;51.592;7.180;2024-02-15T13:30:20;9.20;;;1.58;;
37955;SDS011;23776;51.592;7.180;2024-02-15T13:32:48;7.15;;;1.20;;
37955;SDS011;23776;51.592;7.180;2024-02-15T13:35:15;3.08;;;1.33;;
37955;SDS011;23776;51.592;7.180;2024-02-15T13:37:48;4.60;;;1.48;;
37955;SDS011;23776;51.592;7.180;2024-02-15T13:40:17;5.65;;;1.00;;
37955;SDS011;23776;51.592;7.180;2024-02-15T13:42:45;2.30;;;1.20;;
37955;SDS011;23776;51.592;7.180;2024-02-15T13:45:17;3.58;;;1.20;;
37955;SDS011;23776;51.592;7.180;2024-02-15T13:47:55;5.60;;;1.52;;
37955;SDS011;23776;51.592;7.180;2024-02-15T13:50:22;8.45;;;1.80;;
37955;SDS011;23776;51.592;7.180;2024-02-15T13:52:48;4.35;;;1.00;;
37955;SDS011;23776;51.592;7.180;2024-02-15T13:55:15;4.72;;;1.30;;
37955;SDS011;23776;51.592;7.180;2024-02-15T13:57:43;4.40;;;1.33;;
37955;SDS011;23776;51.592;7.180;2024-02-15T14:00:10;3.22;;;1.30;;
37955;SDS011;23776;51.592;7.180;2024-02-15T14:02:49;4.20;;;1.25;;
37955;SDS011;23776;51.592;7.180;2024-02-15T14:05:19;3.17;;;0.93;;
37955;SDS011;23776;51.592;7.180;2024-02-15T14:07:49;9.30;;;1.60;;
37955;SDS011;23776;51.592;7.180;2024-02-15T14:10:15;4.68;;;1.45;;
37955;SDS011;23776;51.592;7.180;2024-02-15T14:12:43;4.80;;;1.10;;
37955;SDS011;23776;51.592;7.180;2024-02-15T14:15:10;3.17;;;1.20;;
37955;SDS011;23776;51.592;7.180;2024-02-15T14:17:36;3.78;;;1.00;;
37955;SDS011;23776;51.592;7.180;2024-02-15T14:20:02;8.38;;;1.40;;
37955;SDS011;23776;51.592;7.180;2024-02-15T14:22:33;4.68;;;1.45;;
37955;SDS011;23776;51.592;7.180;2024-02-15T14:25:02;3.35;;;1.27;;
37955;SDS011;23776;51.592;7.180;2024-02-15T14:27:31;3.55;;;1.10;;
37955;SDS011;23776;51.592;7.180;2024-02-15T14:29:57;3.40;;;1.02;;
37955;SDS011;23776;51.592;7.180;2024-02-15T14:32:42;5.88;;;0.77;;
37955;SDS011;23776;51.592;7.180;2024-02-15T14:35:28;3.42;;;1.20;;
37955;SDS011;23776;51.592;7.180;2024-02-15T14:37:55;1.70;;;0.82;;
37955;SDS011;23776;51.592;7.180;2024-02-15T14:40:27;4.05;;;1.40;;
37955;SDS011;23776;51.592;7.180;2024-02-15T14:42:53;3.50;;;1.10;;
37955;SDS011;23776;51.592;7.180;2024-02-15T14:45:22;2.05;;;1.20;;
37955;SDS011;23776;51.592;7.180;2024-02-15T14:47:48;2.08;;;1.00;;
37955;SDS011;23776;51.592;7.180;2024-02-15T14:50:13;4.45;;;1.30;;
37955;SDS011;23776;51.592;7.180;2024-02-15T14:52:39;4.72;;;1.50;;
37955;SDS011;23776;51.592;7.180;2024-02-15T14:55:05;7.25;;;1.00;;
37955;SDS011;23776;51.592;7.180;2024-02-15T14:57:33;3.83;;;1.00;;
37955;SDS011;23776;51.592;7.180;2024-02-15T14:59:59;11.32;;;1.48;;
37955;SDS011;23776;51.592;7.180;2024-02-15T15:02:25;3.67;;;1.20;;
37955;SDS011;23776;51.592;7.180;2024-02-15T15:04:51;2.83;;;1.30;;
37955;SDS011;23776;51.592;7.180;2024-02-15T15:07:42;5.85;;;1.27;;